createdAt,value
2022-07-25T00:00:24.783Z,53.28
2022-07-25T00:03:28.554Z,53.80
2022-07-25T00:06:31.515Z,53.97
2022-07-25T00:09:34.187Z,54.13
2022-07-25T00:12:38.752Z,53.73
2022-07-25T00:15:41.537Z,53.83
2022-07-25T00:18:44.355Z,53.40
2022-07-25T00:21:47.150Z,53.87
2022-07-25T00:24:49.874Z,54.11
2022-07-25T00:27:53.980Z,53.72
2022-07-25T00:30:56.964Z,54.16
2022-07-25T00:33:59.740Z,54.10
2022-07-25T00:37:02.542Z,53.80
2022-07-25T00:40:05.851Z,53.77
2022-07-25T00:43:10.080Z,54.01
2022-07-25T00:46:14.037Z,54.13
2022-07-25T00:49:22.095Z,54.22
2022-07-25T00:52:24.905Z,54.31
2022-07-25T00:55:28.491Z,54.18
2022-07-25T00:58:33.010Z,54.61
2022-07-25T01:01:36.425Z,54.18
2022-07-25T01:04:39.294Z,54.35
2022-07-25T01:07:42.270Z,54.47
2022-07-25T01:10:45.626Z,54.36
2022-07-25T01:13:49.963Z,54.48
2022-07-25T01:16:52.754Z,54.11
2022-07-25T01:19:55.444Z,53.97
2022-07-25T01:23:00.411Z,54.29
2022-07-25T01:26:03.316Z,53.82
2022-07-25T01:32:08.738Z,52.65
2022-07-25T01:35:12.727Z,51.96
2022-07-25T01:38:17.579Z,52.23
2022-07-25T01:41:22.458Z,52.57
2022-07-25T01:44:25.503Z,52.94
2022-07-25T01:47:28.312Z,52.17
2022-07-25T01:50:30.939Z,52.36
2022-07-25T01:53:35.109Z,52.52
2022-07-25T01:56:43.565Z,51.75
2022-07-25T01:59:49.638Z,51.77
2022-07-25T02:03:13.504Z,51.67
2022-07-25T02:06:16.173Z,51.48
2022-07-25T02:09:20.356Z,50.46
2022-07-25T02:12:22.981Z,50.21
2022-07-25T02:15:25.676Z,50.30
2022-07-25T02:18:28.361Z,49.33
2022-07-25T02:21:31.232Z,49.62
2022-07-25T02:24:37.226Z,49.64
2022-07-25T02:27:39.982Z,49.88
2022-07-25T02:30:42.831Z,50.04
2022-07-25T02:33:47.011Z,50.06
2022-07-25T02:36:49.819Z,50.06
2022-07-25T02:39:53.872Z,49.79
2022-07-25T02:42:56.643Z,49.80
2022-07-25T02:45:59.597Z,49.78
2022-07-25T02:49:02.381Z,49.59
2022-07-25T02:52:05.659Z,50.48
2022-07-25T02:55:11.358Z,50.43
2022-07-25T02:58:14.959Z,50.20
2022-07-25T03:01:17.785Z,50.95
2022-07-25T03:04:20.646Z,50.38
2022-07-25T03:07:23.445Z,50.56
2022-07-25T03:10:27.488Z,50.35
2022-07-25T03:13:30.148Z,50.63
2022-07-25T03:16:32.842Z,51.32
2022-07-25T03:19:35.712Z,51.36
2022-07-25T03:22:38.693Z,51.16
2022-07-25T03:25:42.801Z,51.03
2022-07-25T03:28:45.563Z,50.32
2022-07-25T03:31:48.451Z,50.38
2022-07-25T03:34:51.300Z,49.62
2022-07-25T03:37:54.016Z,49.62
2022-07-25T03:40:58.294Z,49.67
2022-07-25T03:44:01.130Z,49.78
2022-07-25T03:47:03.778Z,49.54
2022-07-25T03:50:07.253Z,49.75
2022-07-25T03:53:10.429Z,49.91
2022-07-25T03:56:14.497Z,50.25
2022-07-25T03:59:19.405Z,51.21
2022-07-25T04:02:22.273Z,50.90
2022-07-25T04:05:24.975Z,49.32
2022-07-25T04:08:27.740Z,49.40
2022-07-25T04:11:31.921Z,50.94
2022-07-25T04:14:34.584Z,51.33
2022-07-25T04:17:39.681Z,51.25
2022-07-25T04:20:42.401Z,50.89
2022-07-25T04:23:45.176Z,51.12
2022-07-25T04:26:49.362Z,49.13
2022-07-25T04:29:52.079Z,47.75
2022-07-25T04:32:54.928Z,46.12
2022-07-25T04:35:57.705Z,46.48
2022-07-25T04:39:00.486Z,43.36
2022-07-25T04:42:04.944Z,44.56
2022-07-25T04:45:08.644Z,43.86
2022-07-25T04:48:11.425Z,44.29
2022-07-25T04:51:14.124Z,40.92
2022-07-25T04:54:16.958Z,42.10
2022-07-25T04:57:21.014Z,40.58
2022-07-25T05:00:24.343Z,38.40
2022-07-25T05:03:27.437Z,39.54
2022-07-25T05:06:30.200Z,38.45
2022-07-25T05:09:32.928Z,38.49
2022-07-25T05:12:37.145Z,36.43
2022-07-25T05:15:39.829Z,35.88
2022-07-25T05:18:42.546Z,36.42
2022-07-25T05:21:45.323Z,35.66
2022-07-25T05:24:48.754Z,34.41
2022-07-25T05:27:54.574Z,34.92
2022-07-25T05:30:57.370Z,33.67
2022-07-25T05:34:00.248Z,33.87
2022-07-25T05:37:03.034Z,33.88
2022-07-25T05:40:07.645Z,33.51
2022-07-25T05:43:11.688Z,33.15
2022-07-25T05:46:14.870Z,32.79
2022-07-25T05:49:17.801Z,32.14
2022-07-25T05:52:20.439Z,32.39
2022-07-25T05:55:23.464Z,31.34
2022-07-25T05:58:29.836Z,31.94
2022-07-25T06:01:33.063Z,32.57
2022-07-25T06:04:35.767Z,31.99
2022-07-25T06:07:38.567Z,32.15
2022-07-25T06:10:41.303Z,31.38
2022-07-25T06:13:45.327Z,30.73
2022-07-25T06:16:48.079Z,29.90
2022-07-25T06:19:50.915Z,30.62
2022-07-25T06:22:53.819Z,31.26
2022-07-25T06:25:56.568Z,30.66
2022-07-25T06:29:00.697Z,30.82
2022-07-25T06:32:03.435Z,31.31
2022-07-25T06:35:07.146Z,29.39
2022-07-25T06:38:09.813Z,29.07
2022-07-25T06:41:15.560Z,29.04
2022-07-25T06:44:19.720Z,30.51
2022-07-25T06:47:22.375Z,29.02
2022-07-25T06:50:25.239Z,29.32
2022-07-25T06:53:28.281Z,28.84
2022-07-25T06:56:33.004Z,28.36
2022-07-25T06:59:37.199Z,28.97
2022-07-25T07:02:49.249Z,28.35
2022-07-25T07:05:52.116Z,28.26
2022-07-25T07:08:55.094Z,26.49
2022-07-25T07:11:57.874Z,28.01
2022-07-25T07:15:01.871Z,27.41
2022-07-25T07:18:04.752Z,26.33
2022-07-25T07:21:07.848Z,25.91
2022-07-25T07:24:24.271Z,27.30
2022-07-25T07:27:27.517Z,26.42
2022-07-25T07:30:58.663Z,26.31
2022-07-25T07:33:54.879Z,26.72
2022-07-25T07:36:57.642Z,25.99
2022-07-25T07:40:00.300Z,26.75
2022-07-25T07:43:04.073Z,25.50
2022-07-25T07:46:08.663Z,26.82
2022-07-25T07:49:11.911Z,25.84
2022-07-25T07:52:14.913Z,26.10
2022-07-25T07:55:35.624Z,26.78
2022-07-25T07:58:38.402Z,25.54
2022-07-25T08:01:42.546Z,25.57
2022-07-25T08:04:45.391Z,26.08
2022-07-25T08:07:48.475Z,25.19
2022-07-25T08:10:54.531Z,25.87
2022-07-25T08:14:01.878Z,24.91
2022-07-25T08:17:06.026Z,25.42
2022-07-25T08:20:35.815Z,23.85
2022-07-25T08:23:34.607Z,24.65
2022-07-25T08:26:37.595Z,24.46
2022-07-25T08:29:40.792Z,25.17
2022-07-25T08:32:53.514Z,24.20
2022-07-25T08:35:59.021Z,24.64
2022-07-25T08:39:01.955Z,24.91
2022-07-25T08:42:09.213Z,24.96
2022-07-25T08:45:16.279Z,24.49
2022-07-25T08:48:21.884Z,24.47
2022-07-25T08:51:25.776Z,23.88
2022-07-25T08:54:28.480Z,24.08
2022-07-25T08:57:31.404Z,24.63
2022-07-25T09:00:34.300Z,24.05
2022-07-25T09:03:39.019Z,24.12
2022-07-25T09:06:51.069Z,23.95
2022-07-25T09:09:54.059Z,24.59
2022-07-25T09:12:58.492Z,23.95
2022-07-25T09:16:01.185Z,22.97
2022-07-25T09:19:12.766Z,23.41
2022-07-25T09:22:15.444Z,23.92
2022-07-25T09:25:26.351Z,22.99
2022-07-25T09:28:29.416Z,23.70
2022-07-25T09:31:35.089Z,23.48
2022-07-25T09:34:41.452Z,23.20
2022-07-25T09:37:44.101Z,24.72
2022-07-25T09:40:56.833Z,24.13
2022-07-25T09:43:59.561Z,23.63
2022-07-25T09:47:11.646Z,23.43
2022-07-25T09:50:15.886Z,23.69
2022-07-25T09:53:19.923Z,22.03
2022-07-25T09:56:22.791Z,22.45
2022-07-25T09:59:25.548Z,22.77
2022-07-25T10:02:41.550Z,22.77
2022-07-25T10:05:56.647Z,22.80
2022-07-25T10:09:00.234Z,23.62
2022-07-25T10:12:08.113Z,23.26
2022-07-25T10:15:13.756Z,22.54
2022-07-25T10:18:18.610Z,21.68
2022-07-25T10:21:27.247Z,22.86
2022-07-25T10:24:35.065Z,22.03
2022-07-25T10:27:44.432Z,22.92
2022-07-25T10:30:47.600Z,21.97
2022-07-25T10:33:55.148Z,22.13
2022-07-25T10:37:11.059Z,21.00
2022-07-25T10:40:26.953Z,21.05
2022-07-25T10:43:29.792Z,21.92
2022-07-25T10:46:36.258Z,21.13
2022-07-25T10:50:00.155Z,22.28
2022-07-25T10:53:09.324Z,20.99
2022-07-25T10:56:15.462Z,21.17
2022-07-25T10:59:30.955Z,21.55
2022-07-25T11:02:34.365Z,21.86
2022-07-25T11:05:46.152Z,20.96
2022-07-25T11:08:50.170Z,20.84
2022-07-25T11:11:54.974Z,20.87
2022-07-25T11:15:02.144Z,22.01
2022-07-25T11:18:05.198Z,20.91
2022-07-25T11:21:09.572Z,20.63
2022-07-25T11:24:13.853Z,20.07
2022-07-25T11:27:22.952Z,21.13
2022-07-25T11:30:27.668Z,20.63
2022-07-25T11:33:30.411Z,21.01
2022-07-25T11:36:33.239Z,20.46
2022-07-25T11:39:41.042Z,21.47
2022-07-25T11:42:46.367Z,21.00
2022-07-25T11:45:58.048Z,21.03
2022-07-25T11:49:06.646Z,21.01
2022-07-25T11:52:19.759Z,22.05
2022-07-25T11:55:30.150Z,20.74
2022-07-25T11:58:32.828Z,21.89
2022-07-25T12:01:36.894Z,20.61
2022-07-25T12:04:39.613Z,21.27
2022-07-25T12:07:45.541Z,21.98
2022-07-25T12:10:51.257Z,21.74
2022-07-25T12:14:04.660Z,21.23
2022-07-25T12:17:07.474Z,21.00
2022-07-25T12:20:15.999Z,21.69
2022-07-25T12:23:18.891Z,20.73
2022-07-25T12:26:23.261Z,20.57
2022-07-25T12:29:26.075Z,20.08
2022-07-25T12:32:28.795Z,20.72
2022-07-25T12:35:31.748Z,20.39
2022-07-25T12:38:34.635Z,20.34
2022-07-25T12:41:40.022Z,20.28
2022-07-25T12:44:42.806Z,21.03
2022-07-25T12:47:47.059Z,20.64
2022-07-25T12:50:49.780Z,20.90
2022-07-25T12:53:52.417Z,20.65
2022-07-25T12:56:56.674Z,21.52
2022-07-25T12:59:59.452Z,21.59
2022-07-25T13:03:02.235Z,21.69
2022-07-25T13:06:06.270Z,22.04
2022-07-25T13:09:09.249Z,21.32
2022-07-25T13:12:16.513Z,21.84
2022-07-25T13:15:20.935Z,21.20
2022-07-25T13:18:23.906Z,21.41
2022-07-25T13:21:26.679Z,22.16
2022-07-25T13:24:29.390Z,23.39
2022-07-25T13:27:33.590Z,23.16
2022-07-25T13:30:36.497Z,22.29
2022-07-25T13:33:40.095Z,21.02
2022-07-25T13:36:42.722Z,22.27
2022-07-25T13:39:45.463Z,22.56
2022-07-25T13:42:49.612Z,22.36
2022-07-25T13:45:52.507Z,22.16
2022-07-25T13:48:56.682Z,22.11
2022-07-25T13:51:59.462Z,22.47
2022-07-25T13:55:02.247Z,21.66
2022-07-25T13:58:07.264Z,21.25
2022-07-25T14:01:11.573Z,21.41
2022-07-25T14:04:14.587Z,21.86
2022-07-25T14:07:17.327Z,21.34
2022-07-25T14:10:22.533Z,21.96
2022-07-25T14:13:26.559Z,21.85
2022-07-25T14:16:29.450Z,21.00
2022-07-25T14:19:32.475Z,21.20
2022-07-25T14:22:35.353Z,21.62
2022-07-25T14:25:39.058Z,21.36
2022-07-25T14:28:43.899Z,22.23
2022-07-25T14:31:46.679Z,21.29
2022-07-25T14:34:49.755Z,22.52
2022-07-25T14:37:52.460Z,22.99
2022-07-25T14:40:55.649Z,21.65
2022-07-25T14:43:59.940Z,22.64
2022-07-25T14:47:02.863Z,22.44
2022-07-25T14:50:06.643Z,23.46
2022-07-25T14:53:09.503Z,23.08
2022-07-25T14:56:13.199Z,22.58
2022-07-25T14:59:17.776Z,22.49
2022-07-25T15:02:20.482Z,22.73
2022-07-25T15:05:23.334Z,23.56
2022-07-25T15:08:26.050Z,24.03
2022-07-25T15:11:29.315Z,22.25
2022-07-25T15:14:33.330Z,22.52
2022-07-25T15:17:36.200Z,23.15
2022-07-25T15:20:38.984Z,22.93
2022-07-25T15:23:41.725Z,22.86
2022-07-25T15:26:44.509Z,22.51
2022-07-25T15:29:48.661Z,22.98
2022-07-25T15:32:51.449Z,22.54
2022-07-25T15:35:54.295Z,22.72
2022-07-25T15:38:56.947Z,22.55
2022-07-25T15:41:59.739Z,22.72
2022-07-25T15:45:31.411Z,23.04
2022-07-25T15:48:29.212Z,22.87
2022-07-25T15:51:31.899Z,22.29
2022-07-25T15:54:34.687Z,22.44
2022-07-25T15:57:37.374Z,23.01
2022-07-25T16:00:41.951Z,22.09
2022-07-25T16:03:45.407Z,23.20
2022-07-25T16:06:49.035Z,23.03
2022-07-25T16:09:51.941Z,23.33
2022-07-25T16:12:54.724Z,23.55
2022-07-25T16:15:58.869Z,24.12
2022-07-25T16:19:02.132Z,23.01
2022-07-25T16:22:05.123Z,23.94
2022-07-25T16:25:08.705Z,23.84
2022-07-25T16:28:11.356Z,23.31
2022-07-25T16:31:15.659Z,23.50
2022-07-25T16:34:18.415Z,23.30
2022-07-25T16:37:21.762Z,24.00
2022-07-25T16:40:28.683Z,24.55
2022-07-25T16:43:33.492Z,29.99
2022-07-25T16:46:37.603Z,42.01
2022-07-25T16:49:40.512Z,49.23
2022-07-25T16:52:43.222Z,52.96
2022-07-25T16:55:46.086Z,55.41
2022-07-25T16:58:48.755Z,57.03
2022-07-25T17:01:53.074Z,54.85
2022-07-25T17:04:55.873Z,56.83
2022-07-25T17:07:59.873Z,58.66
2022-07-25T17:11:03.506Z,55.98
2022-07-25T17:14:06.220Z,55.18
2022-07-25T17:17:10.382Z,56.60
2022-07-25T17:20:13.372Z,57.55
2022-07-25T17:23:16.345Z,57.68
2022-07-25T17:26:19.329Z,57.27
2022-07-25T17:29:22.145Z,55.48
2022-07-25T17:32:29.671Z,55.63
2022-07-25T17:35:33.274Z,55.42
2022-07-25T17:38:36.112Z,56.99
2022-07-25T17:41:38.821Z,57.97
2022-07-25T17:44:41.818Z,58.13
2022-07-25T17:47:46.237Z,57.27
2022-07-25T17:50:48.939Z,58.14
2022-07-25T17:53:51.825Z,56.11
2022-07-25T17:56:54.537Z,54.36
2022-07-25T17:59:57.508Z,53.56
2022-07-25T18:03:01.532Z,46.86
2022-07-25T18:06:05.188Z,46.95
2022-07-25T18:09:08.814Z,49.30
2022-07-25T18:12:11.531Z,48.32
2022-07-25T18:15:14.887Z,49.90
2022-07-25T18:18:20.766Z,51.56
2022-07-25T18:21:24.403Z,52.63
2022-07-25T18:24:29.401Z,52.80
2022-07-25T18:27:32.579Z,54.03
2022-07-25T18:30:35.249Z,53.98
2022-07-25T18:33:39.330Z,50.16
2022-07-25T18:36:42.916Z,53.22
2022-07-25T18:39:45.716Z,56.72
2022-07-25T18:42:48.393Z,59.27
2022-07-25T18:45:51.526Z,60.12
2022-07-25T18:48:55.643Z,61.68
2022-07-25T18:51:58.505Z,61.90
2022-07-25T18:55:01.319Z,62.71
2022-07-25T18:58:04.224Z,63.04
2022-07-25T19:01:09.217Z,63.06
2022-07-25T19:04:13.448Z,63.51
2022-07-25T19:07:16.471Z,63.93
2022-07-25T19:10:19.338Z,64.17
2022-07-25T19:13:47.873Z,64.78
2022-07-25T19:16:45.146Z,64.71
2022-07-25T19:19:49.260Z,64.83
2022-07-25T19:22:52.388Z,65.19
2022-07-25T19:25:55.098Z,65.46
2022-07-25T19:28:58.792Z,66.19
2022-07-25T19:32:01.478Z,66.08
2022-07-25T19:35:06.950Z,65.66
2022-07-25T19:38:09.622Z,65.80
2022-07-25T19:41:14.508Z,61.19
2022-07-25T19:44:17.212Z,58.31
2022-07-25T19:47:20.012Z,57.33
2022-07-25T19:50:24.031Z,57.21
2022-07-25T19:53:28.668Z,56.59
2022-07-25T19:56:34.107Z,56.36
2022-07-25T19:59:37.224Z,57.11
2022-07-25T20:02:41.700Z,57.26
2022-07-25T20:05:47.461Z,57.28
2022-07-25T20:08:50.163Z,58.67
2022-07-25T20:11:52.856Z,57.43
2022-07-25T20:14:55.670Z,56.99
2022-07-25T20:17:59.581Z,57.84
2022-07-25T20:21:03.742Z,57.58
2022-07-25T20:24:07.088Z,58.06
2022-07-25T20:27:10.129Z,59.20
2022-07-25T20:30:14.159Z,59.21
2022-07-25T20:33:17.257Z,59.18
2022-07-25T20:36:21.874Z,59.57
2022-07-25T20:39:26.302Z,59.29
2022-07-25T20:42:32.387Z,60.63
2022-07-25T20:45:35.095Z,60.99
2022-07-25T20:48:38.011Z,61.18
2022-07-25T20:51:42.168Z,61.02
2022-07-25T20:54:44.940Z,60.92
2022-07-25T20:57:50.642Z,61.14
2022-07-25T21:00:53.885Z,61.14
2022-07-25T21:03:56.572Z,62.35
2022-07-25T21:07:00.719Z,61.80
2022-07-25T21:10:09.333Z,62.46
2022-07-25T21:13:12.002Z,61.95
2022-07-25T21:16:14.835Z,61.63
2022-07-25T21:19:17.513Z,61.55
2022-07-25T21:22:22.277Z,62.63
2022-07-25T21:25:25.036Z,62.71
2022-07-25T21:28:27.826Z,62.56
2022-07-25T21:31:30.729Z,62.26
2022-07-25T21:34:33.693Z,62.51
2022-07-25T21:37:37.913Z,62.86
2022-07-25T21:40:41.246Z,62.76
2022-07-25T21:43:44.356Z,63.06
2022-07-25T21:46:47.034Z,62.86
2022-07-25T21:50:07.572Z,62.61
2022-07-25T21:53:15.367Z,63.01
2022-07-25T21:56:18.530Z,62.61
2022-07-25T21:59:21.212Z,63.35
2022-07-25T22:02:24.332Z,63.29
2022-07-25T22:05:27.537Z,64.93
2022-07-25T22:08:31.658Z,65.67
2022-07-25T22:11:42.261Z,66.13
2022-07-25T22:14:46.412Z,65.99
2022-07-25T22:17:50.087Z,67.03
2022-07-25T22:20:52.921Z,66.23
2022-07-25T22:23:57.106Z,67.83
2022-07-25T22:26:59.806Z,68.58
2022-07-25T22:30:02.777Z,69.15
2022-07-25T22:33:05.433Z,69.26
2022-07-25T22:36:09.002Z,69.84
2022-07-25T22:39:13.172Z,69.26
2022-07-25T22:42:16.383Z,69.63
2022-07-25T22:45:20.020Z,68.67
2022-07-25T22:48:22.785Z,68.44
2022-07-25T22:51:26.366Z,67.83
2022-07-25T22:54:30.488Z,68.16
2022-07-25T22:57:36.728Z,67.94
2022-07-25T23:00:40.385Z,67.93
2022-07-25T23:03:43.106Z,69.17
2022-07-25T23:06:45.955Z,68.93
2022-07-25T23:09:49.963Z,67.59
2022-07-25T23:12:52.780Z,67.68
2022-07-25T23:15:55.427Z,69.10
2022-07-25T23:18:58.355Z,68.33
2022-07-25T23:22:01.372Z,68.94
2022-07-25T23:25:05.785Z,68.70
2022-07-25T23:28:08.643Z,68.27
2022-07-25T23:31:11.357Z,68.49
2022-07-25T23:34:14.210Z,68.90
2022-07-25T23:37:16.964Z,69.41
2022-07-25T23:40:21.178Z,70.04
2022-07-25T23:43:40.848Z,69.79
2022-07-25T23:46:46.892Z,70.27
2022-07-25T23:49:49.789Z,70.35
2022-07-25T23:52:52.752Z,70.36
2022-07-25T23:55:56.937Z,70.67
2022-07-25T23:59:00.369Z,69.88
